Time;durP1;ratioP1;P1;durP2;ratioP2;P2;SDS_P1;SDS_P2;PMS_P1;PMS_P2;Temp;Humidity;BMP_temperature;BMP_pressure;BME280_temperature;BME280_humidity;BME280_pressure;Samples;Min_cycle;Max_cycle;Signal;HPM_P1;HPM_P2
2023/06/30 00:01:49;;;;;;;5.80;3.87;;;;;;;17.24;72.58;97004.50;5104594;28;20197;-71
2023/06/30 00:05:09;;;;;;;3.97;3.57;;;;;;;17.46;71.82;97016.84;5106769;28;20560;-73
2023/06/30 00:08:32;;;;;;;6.07;3.63;;;;;;;17.58;71.52;97018.56;5105361;28;20196;-75
2023/06/30 00:11:13;;;;;;;4.00;3.60;;;;;;;17.50;71.10;97006.06;5106731;28;20200;-73
2023/06/30 00:14:21;;;;;;;4.23;3.63;;;;;;;17.48;70.92;97012.31;5105039;28;20196;-72
2023/06/30 00:17:42;;;;;;;5.80;3.40;;;;;;;17.54;70.22;97017.97;5106703;28;20185;-72
2023/06/30 00:21:03;;;;;;;6.23;4.30;;;;;;;17.12;71.03;97015.00;5105805;28;20680;-73
2023/06/30 00:24:24;;;;;;;5.37;4.50;;;;;;;17.05;70.32;97020.69;5107930;28;20676;-74
2023/06/30 00:27:45;;;;;;;4.93;4.00;;;;;;;16.82;71.02;97018.03;5105164;28;20911;-73
2023/06/30 00:31:06;;;;;;;3.93;3.40;;;;;;;16.83;71.80;97014.47;5106394;28;20196;-74
2023/06/30 00:34:27;;;;;;;5.83;4.63;;;;;;;16.68;70.92;97018.16;5106865;28;20245;-73
2023/06/30 00:37:15;;;;;;;4.83;4.23;;;;;;;16.58;71.87;97022.38;5106636;28;20242;-76
2023/06/30 00:40:36;;;;;;;5.60;4.67;;;;;;;16.53;71.78;97024.47;5088301;28;20188;-73
2023/06/30 00:43:40;;;;;;;6.23;4.10;;;;;;;16.31;72.56;97032.94;5105283;28;20188;-73
2023/06/30 00:47:01;;;;;;;6.07;4.47;;;;;;;15.97;73.69;97028.34;5105158;28;20264;-74
2023/06/30 00:50:21;;;;;;;4.43;4.03;;;;;;;15.91;73.62;97024.34;5106193;28;20195;-73
2023/06/30 00:53:42;;;;;;;5.60;4.80;;;;;;;15.84;73.61;97020.47;5104173;28;20226;-73
2023/06/30 00:57:05;;;;;;;3.60;3.30;;;;;;;15.72;73.95;97007.41;5104878;28;20184;-73
2023/06/30 01:00:26;;;;;;;6.27;3.60;;;;;;;15.67;73.71;97015.53;5103096;28;20270;-74
2023/06/30 01:03:25;;;;;;;4.70;3.63;;;;;;;15.34;74.29;97012.50;5105962;28;20675;-74
2023/06/30 01:06:12;;;;;;;5.80;4.07;;;;;;;15.40;74.81;97020.75;5105373;28;20231;-74
2023/06/30 01:09:37;;;;;;;4.60;4.17;;;;;;;15.49;74.19;97019.38;5102645;28;20219;-75
2023/06/30 01:13:00;;;;;;;4.90;4.00;;;;;;;15.32;74.29;97030.03;5105537;28;20206;-77
2023/06/30 01:16:21;;;;;;;5.10;4.00;;;;;;;15.42;73.94;97020.66;5105608;28;20192;-76
2023/06/30 01:19:11;;;;;;;4.87;4.17;;;;;;;15.41;73.48;97014.59;5103723;28;20220;-77
2023/06/30 01:22:42;;;;;;;5.03;4.03;;;;;;;15.39;73.88;97020.88;5106016;28;20245;-72
2023/06/30 01:26:03;;;;;;;6.87;4.43;;;;;;;15.13;74.44;97017.31;5106181;28;20192;-74
2023/06/30 01:29:11;;;;;;;3.90;3.60;;;;;;;15.27;73.93;97013.84;5104931;28;20612;-73
2023/06/30 01:32:31;;;;;;;4.17;3.77;;;;;;;15.18;73.77;97004.00;5103486;28;20262;-74
2023/06/30 01:35:53;;;;;;;4.10;3.70;;;;;;;15.20;73.42;97010.78;5102753;28;20546;-73
2023/06/30 01:39:15;;;;;;;4.40;3.70;;;;;;;15.27;72.79;97006.84;5104678;28;20188;-73
2023/06/30 01:42:33;;;;;;;4.70;3.50;;;;;;;15.45;72.18;97004.84;5109234;28;20207;-72
2023/06/30 01:45:53;;;;;;;5.90;4.00;;;;;;;15.69;71.20;97004.97;5108985;28;20219;-72
2023/06/30 01:49:14;;;;;;;4.17;3.73;;;;;;;15.61;71.26;97004.66;5090199;28;20199;-71
2023/06/30 01:52:35;;;;;;;4.73;4.27;;;;;;;15.74;70.65;96990.69;5109011;28;20191;-75
2023/06/30 01:55:56;;;;;;;4.23;3.80;;;;;;;15.83;70.24;96997.06;5108639;28;20212;-72
2023/06/30 01:59:16;;;;;;;5.07;3.33;;;;;;;16.12;69.73;96985.47;5108796;28;20188;-73
2023/06/30 02:02:37;;;;;;;5.70;3.77;;;;;;;15.99;69.67;96995.91;5109838;28;20193;-72
2023/06/30 02:05:58;;;;;;;4.50;3.70;;;;;;;15.86;70.51;96984.66;5107834;28;20188;-73
2023/06/30 02:09:19;;;;;;;4.43;4.00;;;;;;;15.78;70.98;96992.16;5088957;28;20235;-72
2023/06/30 02:12:40;;;;;;;6.43;4.43;;;;;;;15.72;70.67;96974.31;5109107;28;20208;-74
2023/06/30 02:16:01;;;;;;;5.57;4.40;;;;;;;15.94;70.49;96989.34;5107276;28;20207;-77
2023/06/30 02:19:23;;;;;;;4.77;4.27;;;;;;;16.23;69.83;96988.19;5107405;28;20186;-72
2023/06/30 02:22:44;;;;;;;5.03;3.83;;;;;;;16.36;69.21;96993.41;5090777;28;20218;-73
2023/06/30 02:26:05;;;;;;;6.00;4.10;;;;;;;16.24;70.11;96982.84;5106327;28;20647;-73
2023/06/30 02:29:26;;;;;;;5.57;4.10;;;;;;;16.04;71.29;96993.84;5089265;28;20229;-75
2023/06/30 02:32:46;;;;;;;5.00;3.83;;;;;;;15.89;72.36;96992.25;5107425;28;20290;-72
2023/06/30 02:36:07;;;;;;;5.27;3.97;;;;;;;16.04;72.31;96993.84;5107182;28;20188;-73
2023/06/30 02:39:28;;;;;;;5.77;3.90;;;;;;;16.18;71.28;96977.22;5106092;28;20188;-73
2023/06/30 02:42:48;;;;;;;4.57;4.17;;;;;;;16.02;72.15;96992.28;5108244;28;20245;-72
2023/06/30 02:46:09;;;;;;;8.97;5.33;;;;;;;15.80;72.89;96992.91;5105823;28;20632;-73
2023/06/30 02:49:30;;;;;;;7.13;3.80;;;;;;;15.59;74.04;96989.09;5087098;28;20196;-73
2023/06/30 02:52:51;;;;;;;5.80;4.67;;;;;;;15.62;73.99;96975.84;5104644;28;20219;-72
2023/06/30 02:56:12;;;;;;;6.47;3.83;;;;;;;15.66;74.06;96984.31;5105927;28;20184;-75
2023/06/30 02:59:34;;;;;;;4.80;4.13;;;;;;;15.35;75.95;96995.91;5106222;28;20585;-73
2023/06/30 03:02:55;;;;;;;5.37;3.97;;;;;;;15.53;75.04;96981.69;5090287;28;20195;-73
2023/06/30 03:06:17;;;;;;;5.47;4.23;;;;;;;15.41;75.77;96987.69;5106323;28;20679;-74
2023/06/30 03:09:39;;;;;;;5.50;3.80;;;;;;;15.02;77.28;96996.28;5073579;28;20219;-73
2023/06/30 03:12:59;;;;;;;5.87;4.00;;;;;;;15.18;77.67;96999.63;5094104;28;20711;-73
2023/06/30 03:16:20;;;;;;;5.67;4.33;;;;;;;14.96;78.66;96988.88;5087055;28;20196;-73
2023/06/30 03:19:41;;;;;;;4.77;4.27;;;;;;;14.94;79.16;96989.94;5076254;28;20245;-73
2023/06/30 03:23:02;;;;;;;6.47;4.90;;;;;;;14.84;79.29;96986.22;5083539;28;20581;-72
2023/06/30 03:26:23;;;;;;;5.27;4.77;;;;;;;14.84;79.32;96966.19;5099272;28;20189;-76
2023/06/30 03:29:48;;;;;;;4.87;4.37;;;;;;;15.02;78.92;96992.88;5089048;28;20275;-71
2023/06/30 03:33:14;;;;;;;4.37;3.97;;;;;;;15.23;78.23;96994.06;5084250;28;20203;-72
2023/06/30 03:36:35;;;;;;;6.73;5.10;;;;;;;15.38;77.38;96993.09;5068689;28;20219;-72
2023/06/30 03:39:57;;;;;;;5.70;4.63;;;;;;;15.35;77.60;96998.53;5101919;28;20560;-71
2023/06/30 03:43:21;;;;;;;4.53;4.13;;;;;;;15.33;77.04;96985.56;5087263;28;20188;-76
2023/06/30 03:46:42;;;;;;;5.73;4.13;;;;;;;15.41;75.70;96991.09;5086339;28;20239;-76
2023/06/30 03:50:03;;;;;;;5.43;4.00;;;;;;;16.00;73.42;96991.53;5085143;28;20185;-77
2023/06/30 03:53:24;;;;;;;4.43;3.83;;;;;;;16.47;70.63;96996.94;5058092;28;20254;-76
2023/06/30 03:56:47;;;;;;;4.40;4.00;;;;;;;16.63;69.27;96994.13;5071453;28;20195;-74
2023/06/30 04:00:11;;;;;;;5.03;3.97;;;;;;;16.77;68.89;96987.00;5088342;28;20182;-73
2023/06/30 04:03:33;;;;;;;3.80;3.50;;;;;;;17.11;67.54;96998.47;5087529;28;20669;-76
2023/06/30 04:06:56;;;;;;;5.13;3.77;;;;;;;17.52;66.06;96982.38;5069846;28;20308;-75
2023/06/30 04:10:18;;;;;;;3.87;3.40;;;;;;;17.92;64.72;96988.94;5094529;28;20269;-72
2023/06/30 04:13:44;;;;;;;4.50;4.10;;;;;;;17.62;67.10;96984.19;5095968;28;20186;-77
2023/06/30 04:17:05;;;;;;;4.40;3.63;;;;;;;17.80;66.38;97001.16;5095947;28;20640;-78
2023/06/30 04:20:26;;;;;;;3.90;3.50;;;;;;;18.38;65.15;97000.16;5095068;28;20288;-74
2023/06/30 04:23:46;;;;;;;8.67;5.10;;;;;;;19.21;62.08;96995.31;5105005;28;20202;-73
2023/06/30 04:27:08;;;;;;;7.13;6.13;;;;;;;19.21;60.94;96995.31;5107092;28;20222;-73
2023/06/30 04:30:31;;;;;;;4.50;3.10;;;;;;;19.89;59.08;97008.09;5105572;28;20218;-77
2023/06/30 04:33:51;;;;;;;4.80;2.97;;;;;;;19.80;58.57;97007.09;5107576;28;20670;-74
2023/06/30 04:37:13;;;;;;;6.43;4.10;;;;;;;20.11;58.77;97015.88;5103937;28;20191;-74
2023/06/30 04:40:33;;;;;;;5.07;3.43;;;;;;;20.28;57.24;97020.53;5103755;28;20581;-72
2023/06/30 04:43:54;;;;;;;6.03;3.80;;;;;;;20.51;57.70;97024.69;5105423;28;20192;-72
2023/06/30 04:47:16;;;;;;;8.33;3.50;;;;;;;20.85;57.07;97010.28;5107140;28;20226;-71
2023/06/30 04:50:37;;;;;;;8.73;4.07;;;;;;;21.55;56.47;97033.91;5106040;28;20275;-72
2023/06/30 04:53:58;;;;;;;3.27;2.97;;;;;;;22.06;53.98;97028.34;5104072;28;20186;-74
2023/06/30 04:57:19;;;;;;;6.57;3.37;;;;;;;22.04;53.49;97022.38;5106950;28;20194;-74
2023/06/30 05:00:42;;;;;;;7.73;3.70;;;;;;;22.04;54.42;97022.38;5088014;28;20193;-77
2023/06/30 05:04:04;;;;;;;6.13;4.00;;;;;;;21.96;53.81;97024.91;5103730;28;20267;-79
2023/06/30 05:07:25;;;;;;;6.97;4.90;;;;;;;21.95;54.38;97039.03;5086876;28;20798;-79
2023/06/30 05:10:46;;;;;;;5.03;3.40;;;;;;;22.32;53.66;97028.56;5093489;28;20233;-73
2023/06/30 05:14:06;;;;;;;5.13;3.50;;;;;;;22.26;54.43;97027.34;5099042;28;20187;-77
2023/06/30 05:17:27;;;;;;;6.27;3.67;;;;;;;22.04;55.44;97019.75;5096768;28;20199;-76
2023/06/30 05:20:48;;;;;;;5.03;3.67;;;;;;;22.32;55.85;97016.22;5088500;28;20236;-76
2023/06/30 05:24:11;;;;;;;7.73;3.17;;;;;;;22.75;53.72;97023.59;5087472;28;20795;-76
2023/06/30 05:27:35;;;;;;;7.07;3.53;;;;;;;21.91;57.04;97035.03;5100606;28;20673;-79
2023/06/30 05:30:55;;;;;;;3.80;3.40;;;;;;;21.62;57.80;97020.97;5109578;28;20187;-75
2023/06/30 05:34:16;;;;;;;4.30;3.70;;;;;;;21.23;59.43;97029.81;5107569;28;20224;-74
2023/06/30 05:37:37;;;;;;;3.57;3.27;;;;;;;21.35;59.57;97039.28;5106256;28;20677;-77
2023/06/30 05:40:58;;;;;;;3.93;3.53;;;;;;;21.28;59.18;97032.88;5092318;28;20218;-75
2023/06/30 05:43:55;;;;;;;6.33;3.43;;;;;;;21.25;59.67;97014.69;5110524;28;20205;-74
2023/06/30 05:47:02;;;;;;;4.00;3.47;;;;;;;21.20;59.20;97035.34;5091266;28;20237;-76
2023/06/30 05:50:23;;;;;;;7.27;4.00;;;;;;;21.85;56.76;97038.22;5107216;28;20216;-74
2023/06/30 05:53:44;;;;;;;6.10;3.60;;;;;;;22.39;55.55;97040.22;5108669;28;20290;-75
2023/06/30 05:56:45;;;;;;;5.90;4.23;;;;;;;;;;5109968;28;20353;-74
2023/06/30 05:59:47;;;;;;;3.70;3.20;;;;;;;23.09;51.38;97034.44;5108068;28;20191;-76
2023/06/30 06:02:14;;;;;;;4.43;3.07;;;;;;;22.84;53.36;97017.44;5094419;28;20215;-75
2023/06/30 06:04:41;;;;;;;4.37;3.63;;;;;;;22.42;55.99;97030.22;5108398;28;20203;-75
2023/06/30 06:07:09;;;;;;;5.57;3.30;;;;;;;22.83;54.76;97036.09;5098126;28;20645;-74
2023/06/30 06:10:16;;;;;;;10.23;4.93;;;;;;;23.41;52.80;97032.22;5102142;28;20224;-76
2023/06/30 06:12:58;;;;;;;7.40;3.70;;;;;;;23.72;51.26;97030.03;5109824;28;20690;-77
2023/06/30 06:15:40;;;;;;;7.30;4.57;;;;;;;23.67;52.55;97030.47;5105300;28;20290;-75
2023/06/30 06:19:01;;;;;;;5.70;4.00;;;;;;;24.03;51.54;97032.13;5107455;28;20273;-76
2023/06/30 06:22:22;;;;;;;3.97;3.10;;;;;;;24.29;47.66;97039.28;5109206;28;20239;-77
2023/06/30 06:25:45;;;;;;;6.50;3.70;;;;;;;24.12;49.57;97039.16;5091343;28;20289;-77
2023/06/30 06:29:07;;;;;;;9.63;4.00;;;;;;;24.32;48.10;97034.50;5105710;28;20190;-74
2023/06/30 06:32:32;;;;;;;4.87;3.67;;;;;;;24.57;48.67;97024.91;5108331;28;20186;-75
2023/06/30 06:35:53;;;;;;;6.13;3.80;;;;;;;24.70;48.53;97012.91;5090065;28;20197;-77
2023/06/30 06:38:34;;;;;;;10.17;4.93;;;;;;;25.06;47.97;97026.81;5104816;28;20202;-74
2023/06/30 06:41:42;;;;;;;6.17;4.07;;;;;;;25.18;47.84;97022.91;5105189;28;20187;-76
2023/06/30 06:45:03;;;;;;;6.37;4.27;;;;;;;24.93;48.45;97031.75;5108867;28;20207;-76
2023/06/30 06:48:41;;;;;;;4.20;3.23;;;;;;;25.02;47.52;97034.28;5108997;28;20219;-76
2023/06/30 06:52:02;;;;;;;4.00;3.30;;;;;;;25.23;47.56;97028.56;5106623;28;20684;-75
2023/06/30 06:55:23;;;;;;;3.87;3.47;;;;;;;25.37;46.52;97027.13;5105752;28;20256;-76
2023/06/30 06:58:44;;;;;;;6.23;4.00;;;;;;;25.68;45.55;97033.50;5107211;28;20194;-75
2023/06/30 07:02:05;;;;;;;4.13;3.53;;;;;;;25.73;44.56;97031.19;5108479;28;20203;-75
2023/06/30 07:05:26;;;;;;;3.27;2.97;;;;;;;25.75;42.33;97024.75;5108112;28;20271;-76
2023/06/30 07:08:47;;;;;;;4.67;3.27;;;;;;;25.91;43.35;97023.06;5105979;28;20577;-75
2023/06/30 07:12:09;;;;;;;5.13;3.67;;;;;;;25.75;42.50;97019.44;5104598;28;20258;-75
2023/06/30 07:15:30;;;;;;;4.43;2.90;;;;;;;25.90;40.99;97026.72;5105390;28;20183;-75
2023/06/30 07:18:50;;;;;;;5.13;3.33;;;;;;;25.89;40.04;96995.88;5105818;28;20192;-74
2023/06/30 07:21:32;;;;;;;4.40;2.73;;;;;;;26.23;39.33;97025.78;5107498;28;20188;-74
2023/06/30 07:24:42;;;;;;;3.37;2.60;;;;;;;26.32;41.21;97016.78;5106994;28;20219;-75
2023/06/30 07:28:09;;;;;;;7.67;3.60;;;;;;;26.33;41.68;97023.75;5107817;28;20235;-75
2023/06/30 07:31:31;;;;;;;7.07;3.20;;;;;;;26.47;40.47;97028.38;5108227;28;20195;-75
2023/06/30 07:34:12;;;;;;;4.70;3.47;;;;;;;26.68;39.80;97023.38;5107325;28;20890;-76
2023/06/30 07:37:19;;;;;;;7.33;2.93;;;;;;;26.63;39.67;97023.03;5106474;28;20188;-76
2023/06/30 07:40:40;;;;;;;3.47;2.87;;;;;;;26.49;39.01;97015.78;5105277;28;20203;-74
2023/06/30 07:44:03;;;;;;;3.73;2.70;;;;;;;26.46;39.75;97026.75;5107351;28;20192;-75
2023/06/30 07:47:24;;;;;;;4.47;2.83;;;;;;;26.44;39.43;97023.44;5106024;28;20280;-76
2023/06/30 07:50:45;;;;;;;4.40;3.13;;;;;;;26.61;38.97;97019.72;5106143;28;20187;-77
2023/06/30 07:54:07;;;;;;;5.27;3.33;;;;;;;26.63;38.28;97015.91;5105519;28;20196;-75
2023/06/30 07:57:29;;;;;;;3.57;2.83;;;;;;;26.61;38.87;97012.59;5107655;28;20198;-75
2023/06/30 08:00:20;;;;;;;6.23;2.40;;;;;;;26.52;39.71;97007.47;5106150;28;20256;-75
2023/06/30 08:02:48;;;;;;;2.80;2.50;;;;;;;26.41;39.64;97013.13;5087215;28;20215;-75
2023/06/30 08:06:10;;;;;;;3.13;2.57;;;;;;;26.27;39.58;97021.78;5103218;28;20606;-75
2023/06/30 08:09:32;;;;;;;2.67;2.47;;;;;;;26.01;40.55;97021.09;5106422;28;20231;-75
2023/06/30 08:12:53;;;;;;;4.57;2.30;;;;;;;26.01;39.99;96974.13;5105858;28;20615;-76
2023/06/30 08:16:15;;;;;;;2.60;2.40;;;;;;;26.27;40.64;97004.03;5103446;28;20255;-76
2023/06/30 08:19:41;;;;;;;2.80;2.30;;;;;;;26.23;40.58;97007.19;5104944;28;20183;-74
2023/06/30 08:23:02;;;;;;;2.83;2.43;;;;;;;25.87;41.36;97014.63;5106785;28;20241;-74
2023/06/30 08:26:23;;;;;;;2.27;2.07;;;;;;;25.79;42.67;97004.84;5105425;28;20760;-75
2023/06/30 08:29:44;;;;;;;2.77;2.53;;;;;;;26.02;41.27;96997.03;5105214;28;20212;-75
2023/06/30 08:33:05;;;;;;;2.50;2.30;;;;;;;26.16;40.54;96993.75;5103956;28;20769;-77
2023/06/30 08:36:27;;;;;;;2.23;1.83;;;;;;;25.73;41.35;96994.88;5104512;28;20187;-76
2023/06/30 08:39:43;;;;;;;8.43;5.77;;;;;;;26.27;40.42;96984.59;5089494;28;20191;-74
2023/06/30 08:42:50;;;;;;;2.93;2.47;;;;;;;25.17;42.45;96986.78;5104030;28;20183;-74
2023/06/30 08:46:12;;;;;;;3.10;2.63;;;;;;;25.36;41.27;96990.97;5106101;28;20184;-75
2023/06/30 08:49:33;;;;;;;7.20;3.87;;;;;;;26.02;41.24;96980.28;5104691;28;20679;-76
2023/06/30 08:52:55;;;;;;;4.37;3.40;;;;;;;26.36;40.28;96973.78;5106310;28;20192;-74
2023/06/30 08:56:16;;;;;;;5.47;3.27;;;;;;;26.12;40.35;96980.97;5103045;28;20302;-75
2023/06/30 08:59:38;;;;;;;2.43;1.90;;;;;;;26.11;40.74;96977.47;5088124;28;20188;-75
2023/06/30 09:02:59;;;;;;;3.67;3.10;;;;;;;26.52;40.16;96973.75;5103573;28;20203;-75
2023/06/30 09:06:21;;;;;;;5.00;2.73;;;;;;;26.60;39.46;96983.53;5106321;28;20275;-75
2023/06/30 09:09:22;;;;;;;5.43;2.37;;;;;;;26.56;40.27;96976.91;5105327;28;20231;-75
2023/06/30 09:12:46;;;;;;;3.13;2.30;;;;;;;26.32;40.15;96966.31;5103282;28;20248;-75
2023/06/30 09:16:10;;;;;;;4.20;2.40;;;;;;;26.47;40.10;96954.00;5106249;28;20715;-75
2023/06/30 09:19:31;;;;;;;5.30;3.10;;;;;;;26.84;39.68;96978.16;5106264;28;20184;-77
2023/06/30 09:22:13;;;;;;;3.33;2.20;;;;;;;26.93;39.67;96969.16;5105539;28;20192;-76
2023/06/30 09:25:26;;;;;;;3.53;2.40;;;;;;;27.07;39.14;96957.78;5103790;28;20798;-77
2023/06/30 09:28:50;;;;;;;2.30;2.10;;;;;;;27.05;38.56;96946.50;5105532;28;20516;-77
2023/06/30 09:32:10;;;;;;;2.23;2.03;;;;;;;27.02;38.29;96965.44;5106218;28;20192;-76
2023/06/30 09:35:34;;;;;;;2.47;2.20;;;;;;;26.87;38.72;96939.78;5102826;28;20195;-77
2023/06/30 09:38:54;;;;;;;2.90;2.50;;;;;;;27.27;37.53;96966.16;5103888;28;20272;-75
2023/06/30 09:42:15;;;;;;;3.33;1.90;;;;;;;26.73;38.78;96959.91;5104985;28;20188;-75
2023/06/30 09:45:37;;;;;;;2.00;1.87;;;;;;;26.98;38.55;96953.50;5106025;28;20192;-75
2023/06/30 09:48:58;;;;;;;3.03;2.10;;;;;;;27.08;38.48;96948.00;5103414;28;20181;-76
2023/06/30 09:52:18;;;;;;;2.67;2.13;;;;;;;26.73;38.61;96946.63;5100869;28;20855;-75
2023/06/30 09:55:39;;;;;;;2.20;2.00;;;;;;;26.49;39.53;96946.69;5084792;28;20185;-76
2023/06/30 09:59:00;;;;;;;2.80;2.00;;;;;;;26.38;39.19;96908.03;5105778;28;20306;-75
2023/06/30 10:02:21;;;;;;;7.23;4.70;;;;;;;26.82;39.17;96929.66;5109653;28;20275;-75
2023/06/30 10:05:03;;;;;;;4.27;3.80;;;;;;;26.91;38.89;96918.00;5106159;28;20206;-77
2023/06/30 10:08:10;;;;;;;3.83;2.87;;;;;;;27.19;38.55;96929.81;5109081;28;20226;-78
2023/06/30 10:11:34;;;;;;;3.53;2.83;;;;;;;27.01;39.61;96929.25;5107282;28;20231;-75
2023/06/30 10:14:54;;;;;;;3.70;2.00;;;;;;;26.76;40.79;96925.03;5109405;28;20691;-78
2023/06/30 10:18:17;;;;;;;6.43;2.83;;;;;;;27.41;38.64;96924.72;5105932;28;20188;-75
2023/06/30 10:21:38;;;;;;;2.40;2.13;;;;;;;27.88;37.65;96928.00;5105818;28;20275;-75
2023/06/30 10:24:59;;;;;;;2.87;2.20;;;;;;;27.89;38.04;96917.16;5109464;28;20188;-76
2023/06/30 10:28:20;;;;;;;3.33;2.27;;;;;;;28.28;37.70;96922.28;5108969;28;20251;-75
2023/06/30 10:31:41;;;;;;;3.57;1.90;;;;;;;28.24;37.10;96921.00;5106856;28;20187;-74
2023/06/30 10:35:02;;;;;;;2.57;2.00;;;;;;;28.58;35.81;96921.34;5105603;28;20196;-76
2023/06/30 10:38:27;;;;;;;2.90;2.30;;;;;;;27.94;36.90;96924.59;5107079;28;20678;-75
2023/06/30 10:41:51;;;;;;;2.13;1.93;;;;;;;28.08;36.12;96913.19;5107865;28;20241;-75
2023/06/30 10:45:17;;;;;;;2.50;1.80;;;;;;;27.19;37.11;96910.34;5106759;28;20689;-76
2023/06/30 10:48:38;;;;;;;5.57;3.30;;;;;;;27.13;37.49;96903.91;5088532;28;20231;-76
2023/06/30 10:52:01;;;;;;;2.40;1.90;;;;;;;27.08;37.83;96906.25;5088228;28;20184;-77
2023/06/30 10:55:26;;;;;;;4.20;2.10;;;;;;;27.01;38.51;96846.00;5108773;28;20325;-76
2023/06/30 10:58:47;;;;;;;4.97;2.60;;;;;;;27.97;37.70;96897.63;5106461;28;20339;-76
2023/06/30 11:02:26;;;;;;;2.50;2.30;;;;;;;28.41;36.80;96889.69;5108136;28;20343;-76
2023/06/30 11:05:43;;;;;;;5.10;2.70;;;;;;;28.21;36.21;96884.09;5043738;28;20217;-80
2023/06/30 11:09:03;;;;;;;3.17;2.20;;;;;;;28.28;36.24;96879.66;5029458;28;20739;-76
2023/06/30 11:12:08;;;;;;;3.73;2.97;;;;;;;28.38;35.99;96874.88;5105376;28;20371;-77
2023/06/30 11:14:35;;;;;;;1.87;1.77;;;;;;;27.90;36.91;96881.53;5088573;28;20204;-76
2023/06/30 11:17:45;;;;;;;2.20;2.00;;;;;;;28.05;36.65;96881.56;5106234;28;20679;-76
2023/06/30 11:20:26;;;;;;;2.03;1.80;;;;;;;28.30;36.23;96855.50;5107103;28;20199;-76
2023/06/30 11:22:58;;;;;;;2.80;2.07;;;;;;;28.26;36.38;96873.69;5107713;28;20180;-76
2023/06/30 11:26:34;;;;;;;4.23;2.50;;;;;;;28.48;36.09;96859.44;5106957;28;20233;-75
2023/06/30 11:29:55;;;;;;;3.83;2.67;;;;;;;28.52;36.42;96852.72;5107814;28;20207;-75
2023/06/30 11:33:18;;;;;;;5.00;2.47;;;;;;;28.85;35.04;96861.97;5104877;28;20183;-75
2023/06/30 11:36:38;;;;;;;2.63;2.43;;;;;;;28.90;36.01;96859.59;5106730;28;20179;-75
2023/06/30 11:39:59;;;;;;;2.47;2.23;;;;;;;28.80;35.90;96853.72;5105768;28;20195;-75
2023/06/30 11:43:22;;;;;;;3.07;2.00;;;;;;;28.90;35.61;96856.91;5104215;28;20215;-74
2023/06/30 11:46:42;;;;;;;2.30;2.10;;;;;;;28.67;36.52;96853.56;5107584;28;20680;-76
2023/06/30 11:50:03;;;;;;;2.37;2.10;;;;;;;28.84;36.14;96854.16;5107794;28;20533;-75
2023/06/30 11:53:24;;;;;;;2.60;2.33;;;;;;;28.80;35.82;96859.06;5105809;28;20258;-76
2023/06/30 11:56:45;;;;;;;2.70;2.20;;;;;;;28.43;36.61;96848.53;5106091;28;20450;-75
2023/06/30 12:00:07;;;;;;;3.40;2.53;;;;;;;28.71;35.58;96849.50;5106457;28;20185;-75
2023/06/30 12:03:40;;;;;;;2.30;1.97;;;;;;;28.54;35.88;96848.03;5107766;28;20247;-76
2023/06/30 12:07:05;;;;;;;4.33;2.20;;;;;;;28.86;35.47;96838.81;5085939;28;20219;-77
2023/06/30 12:10:28;;;;;;;2.93;2.30;;;;;;;28.75;35.74;96823.28;5105465;28;20272;-75
2023/06/30 12:13:09;;;;;;;2.57;2.07;;;;;;;29.16;35.26;96821.69;5106252;28;20191;-75
2023/06/30 12:16:36;;;;;;;4.50;2.00;;;;;;;29.50;34.67;96831.66;5107524;28;20184;-76
2023/06/30 12:19:57;;;;;;;2.20;2.00;;;;;;;29.37;34.30;96832.38;5105291;28;20191;-79
2023/06/30 12:23:18;;;;;;;4.57;2.13;;;;;;;29.11;35.69;96817.94;5105649;28;20196;-76
2023/06/30 12:26:40;;;;;;;3.73;2.47;;;;;;;29.02;35.47;96825.22;5106026;28;20260;-78
2023/06/30 12:30:01;;;;;;;3.77;2.73;;;;;;;28.93;35.87;96816.53;5107041;28;20198;-75
2023/06/30 12:33:22;;;;;;;3.00;2.30;;;;;;;28.21;36.90;96804.19;5107168;28;20568;-76
2023/06/30 12:36:49;;;;;;;3.83;2.37;;;;;;;28.42;36.93;96806.09;5104133;28;20278;-78
2023/06/30 12:40:09;;;;;;;2.73;2.10;;;;;;;28.69;36.88;96795.56;5103540;28;20188;-75
2023/06/30 12:43:32;;;;;;;4.03;2.93;;;;;;;29.10;36.22;96793.09;5106605;28;20188;-76
2023/06/30 12:46:53;;;;;;;2.73;2.10;;;;;;;28.94;35.50;96783.53;5104881;28;20191;-76
2023/06/30 12:50:14;;;;;;;6.13;2.60;;;;;;;28.94;36.60;96790.69;5104749;28;20188;-76
2023/06/30 12:53:38;;;;;;;4.27;2.63;;;;;;;28.43;36.97;96743.78;5105739;28;20184;-75
2023/06/30 12:56:58;;;;;;;4.83;1.80;;;;;;;28.33;36.55;96792.03;5105681;28;20203;-77
2023/06/30 13:00:20;;;;;;;4.87;2.90;;;;;;;28.41;37.08;96789.25;5105283;28;20192;-78
2023/06/30 13:03:41;;;;;;;4.47;2.30;;;;;;;28.16;37.07;96762.13;5106623;28;20192;-78
2023/06/30 13:07:02;;;;;;;2.93;2.30;;;;;;;28.42;36.97;96785.56;5105742;28;20219;-78
2023/06/30 13:10:22;;;;;;;3.83;2.77;;;;;;;28.65;37.04;96780.97;5102389;28;20234;-77
2023/06/30 13:13:45;;;;;;;4.87;2.20;;;;;;;28.93;36.58;96773.84;5103904;28;20192;-77
2023/06/30 13:17:06;;;;;;;2.87;2.13;;;;;;;29.17;36.28;96785.19;5106534;28;20199;-75
2023/06/30 13:20:27;;;;;;;3.93;3.00;;;;;;;28.88;36.62;96778.13;5104330;28;20196;-76
2023/06/30 13:23:49;;;;;;;3.40;2.20;;;;;;;28.40;37.23;96776.94;5086047;28;20698;-76
2023/06/30 13:27:11;;;;;;;5.10;2.47;;;;;;;28.34;37.91;96755.56;5103969;28;20227;-77
2023/06/30 13:30:34;;;;;;;2.60;2.40;;;;;;;28.68;36.45;96763.75;5106260;28;20428;-75
2023/06/30 13:33:55;;;;;;;5.77;4.20;;;;;;;28.71;36.86;96750.88;5106180;28;20176;-75
2023/06/30 13:37:16;;;;;;;3.10;2.50;;;;;;;28.56;36.69;96749.28;5109860;28;20196;-78
2023/06/30 13:40:36;;;;;;;3.57;2.20;;;;;;;28.57;37.20;96750.91;5106508;28;20198;-76
2023/06/30 13:43:57;;;;;;;5.00;2.73;;;;;;;28.78;37.13;96748.28;5109718;28;20310;-76
2023/06/30 13:47:18;;;;;;;3.70;3.10;;;;;;;28.81;36.33;96748.72;5110016;28;20228;-80
2023/06/30 13:50:39;;;;;;;5.00;3.37;;;;;;;28.91;37.01;96749.22;5110083;28;20240;-76
2023/06/30 13:54:00;;;;;;;3.53;3.00;;;;;;;29.25;36.15;96745.03;5106975;28;20535;-76
2023/06/30 13:57:20;;;;;;;2.87;2.57;;;;;;;28.93;36.36;96720.53;5106951;28;20646;-74
2023/06/30 14:00:41;;;;;;;5.07;3.70;;;;;;;28.90;36.36;96739.59;5109624;28;20248;-75
2023/06/30 14:04:02;;;;;;;2.90;2.20;;;;;;;28.55;36.84;96747.59;5107338;28;20696;-75
2023/06/30 14:07:24;;;;;;;5.30;2.40;;;;;;;28.61;36.79;96738.88;5107081;28;20250;-76
2023/06/30 14:10:44;;;;;;;3.13;2.00;;;;;;;28.22;37.03;96731.22;5108103;28;20308;-77
2023/06/30 14:14:05;;;;;;;3.13;2.30;;;;;;;28.12;36.75;96725.38;5108954;28;20645;-79
2023/06/30 14:17:27;;;;;;;5.13;2.50;;;;;;;28.50;37.07;96726.81;5107830;28;20191;-75
2023/06/30 14:20:48;;;;;;;3.37;2.50;;;;;;;28.68;36.49;96716.63;5107271;28;20184;-75
2023/06/30 14:24:09;;;;;;;3.40;3.10;;;;;;;28.55;37.04;96684.47;5107795;28;20228;-76
2023/06/30 14:27:30;;;;;;;2.77;2.27;;;;;;;28.89;36.85;96708.59;5105590;28;20246;-77
2023/06/30 14:30:51;;;;;;;2.47;2.27;;;;;;;29.02;36.21;96712.41;5107479;28;20211;-75
2023/06/30 14:34:12;;;;;;;3.50;2.40;;;;;;;28.43;38.02;96699.31;5107010;28;20306;-76
2023/06/30 14:37:32;;;;;;;3.70;2.30;;;;;;;28.66;37.93;96712.50;5108367;28;20523;-76
2023/06/30 14:40:53;;;;;;;5.03;2.50;;;;;;;28.65;37.68;96698.31;5105914;28;20314;-78
2023/06/30 14:44:14;;;;;;;5.00;2.23;;;;;;;28.57;38.29;96692.28;5107582;28;20184;-75
2023/06/30 14:47:35;;;;;;;4.60;2.10;;;;;;;28.26;38.11;96705.03;5106630;28;20227;-79
2023/06/30 14:50:56;;;;;;;4.13;2.57;;;;;;;28.42;38.77;96694.97;5108976;28;20191;-76
2023/06/30 14:53:37;;;;;;;3.80;2.80;;;;;;;28.66;37.58;96692.00;5107481;28;20200;-76
2023/06/30 14:56:06;;;;;;;2.00;1.80;;;;;;;28.27;38.03;96677.41;5108001;28;20241;-76
2023/06/30 14:59:33;;;;;;;2.33;1.77;;;;;;;28.58;37.43;96691.28;5108965;28;20271;-76
2023/06/30 15:02:54;;;;;;;4.97;2.33;;;;;;;28.54;37.52;96687.31;5107743;28;20200;-75
2023/06/30 15:06:15;;;;;;;4.63;2.20;;;;;;;28.30;38.25;96680.50;5105267;28;20699;-78
2023/06/30 15:09:36;;;;;;;5.03;2.50;;;;;;;28.25;39.06;96687.41;5106600;28;20224;-77
2023/06/30 15:12:57;;;;;;;3.00;2.20;;;;;;;28.26;38.01;96668.56;5106815;28;20245;-78
2023/06/30 15:16:18;;;;;;;2.27;2.00;;;;;;;28.13;38.32;96677.25;5107749;28;20214;-75
2023/06/30 15:19:38;;;;;;;2.23;2.03;;;;;;;28.14;38.31;96681.56;5105290;28;20200;-75
2023/06/30 15:22:59;;;;;;;3.00;2.40;;;;;;;27.78;39.14;96677.22;5106743;28;20188;-76
2023/06/30 15:26:20;;;;;;;2.77;2.37;;;;;;;27.92;39.50;96671.03;5106785;28;20192;-76
2023/06/30 15:29:41;;;;;;;2.50;2.30;;;;;;;27.91;38.83;96670.19;5106287;28;20215;-78